createdAt,value
2022-09-15T00:00:29.411Z,59.68
2022-09-15T00:01:29.681Z,59.68
2022-09-15T00:02:30.008Z,59.68
2022-09-15T00:03:30.247Z,59.68
2022-09-15T00:04:30.482Z,59.68
2022-09-15T00:05:30.723Z,59.68
2022-09-15T00:06:30.961Z,59.68
2022-09-15T00:07:31.218Z,59.58
2022-09-15T00:08:31.453Z,59.68
2022-09-15T00:09:31.692Z,59.68
2022-09-15T00:10:31.933Z,59.68
2022-09-15T00:11:32.173Z,59.68
2022-09-15T00:12:32.413Z,59.68
2022-09-15T00:13:32.674Z,59.68
2022-09-15T00:14:32.914Z,59.68
2022-09-15T00:15:33.185Z,59.68
2022-09-15T00:16:33.486Z,59.68
2022-09-15T00:17:33.725Z,59.68
2022-09-15T00:18:33.966Z,59.58
2022-09-15T00:19:34.205Z,59.58
2022-09-15T00:20:34.444Z,59.68
2022-09-15T00:21:34.677Z,59.68
2022-09-15T00:22:34.925Z,59.68
2022-09-15T00:23:35.157Z,59.68
2022-09-15T00:24:35.398Z,59.68
2022-09-15T00:25:35.648Z,59.68
2022-09-15T00:26:35.881Z,59.68
2022-09-15T00:27:36.118Z,59.68
2022-09-15T00:28:36.377Z,59.68
2022-09-15T00:29:36.639Z,59.68
2022-09-15T00:30:36.902Z,59.78
2022-09-15T00:31:37.130Z,59.78
2022-09-15T00:32:37.380Z,59.78
2022-09-15T00:33:37.620Z,59.78
2022-09-15T00:34:37.861Z,59.68
2022-09-15T00:35:38.104Z,59.78
2022-09-15T00:36:38.346Z,59.78
2022-09-15T00:37:38.580Z,59.68
2022-09-15T00:38:38.830Z,59.68
2022-09-15T00:39:39.065Z,59.78
2022-09-15T00:40:39.301Z,59.78
2022-09-15T00:41:39.536Z,59.78
2022-09-15T00:42:39.773Z,59.78
2022-09-15T00:43:40.014Z,59.68
2022-09-15T00:44:40.263Z,59.68
2022-09-15T00:45:40.569Z,59.68
2022-09-15T00:46:40.794Z,59.68
2022-09-15T00:47:41.034Z,59.68
2022-09-15T00:48:41.274Z,59.68
2022-09-15T00:49:41.515Z,59.68
2022-09-15T00:50:41.756Z,59.68
2022-09-15T00:51:41.985Z,59.68
2022-09-15T00:52:42.243Z,59.68
2022-09-15T00:53:42.477Z,59.68
2022-09-15T00:54:42.716Z,59.78
2022-09-15T00:55:42.967Z,59.78
2022-09-15T00:56:43.209Z,59.78
2022-09-15T00:57:43.447Z,59.78
2022-09-15T00:58:43.698Z,59.78
2022-09-15T00:59:43.938Z,59.78
2022-09-15T01:00:44.252Z,59.68
2022-09-15T01:01:44.687Z,59.68
2022-09-15T01:02:44.878Z,59.68
2022-09-15T01:03:45.099Z,59.68
2022-09-15T01:04:45.339Z,59.68
2022-09-15T01:05:45.582Z,59.68
2022-09-15T01:06:45.820Z,59.68
2022-09-15T01:07:46.057Z,59.70
2022-09-15T01:08:46.301Z,59.68
2022-09-15T01:09:46.542Z,59.68
2022-09-15T01:10:46.791Z,59.78
2022-09-15T01:11:47.021Z,59.78
2022-09-15T01:12:47.264Z,59.70
2022-09-15T01:13:47.492Z,59.70
2022-09-15T01:14:47.742Z,59.78
2022-09-15T01:15:47.983Z,59.78
2022-09-15T01:16:48.261Z,59.78
2022-09-15T01:17:48.494Z,59.81
2022-09-15T01:18:48.784Z,59.81
2022-09-15T01:19:49.025Z,59.70
2022-09-15T01:20:49.266Z,59.70
2022-09-15T01:21:49.506Z,59.70
2022-09-15T01:22:49.865Z,59.70
2022-09-15T01:23:50.151Z,59.70
2022-09-15T01:24:50.386Z,59.70
2022-09-15T01:25:50.636Z,59.70
2022-09-15T01:26:50.927Z,59.70
2022-09-15T01:27:51.167Z,59.70
2022-09-15T01:28:51.407Z,59.70
2022-09-15T01:29:51.647Z,59.70
2022-09-15T01:30:51.890Z,59.70
2022-09-15T01:31:52.188Z,59.70
2022-09-15T01:32:52.429Z,59.70
2022-09-15T01:33:52.669Z,59.68
2022-09-15T01:34:52.917Z,59.70
2022-09-15T01:35:53.159Z,59.70
2022-09-15T01:36:53.397Z,59.70
2022-09-15T01:37:53.670Z,59.70
2022-09-15T01:38:53.920Z,59.70
2022-09-15T01:39:54.186Z,59.70
2022-09-15T01:40:54.420Z,59.70
2022-09-15T01:41:54.651Z,59.70
2022-09-15T01:42:54.892Z,59.70
2022-09-15T01:43:55.122Z,59.70
2022-09-15T01:44:55.362Z,59.70
2022-09-15T01:45:55.618Z,59.70
2022-09-15T01:46:55.843Z,59.70
2022-09-15T01:47:56.082Z,59.70
2022-09-15T01:48:56.313Z,59.70
2022-09-15T01:49:56.554Z,59.70
2022-09-15T01:50:56.794Z,59.70
2022-09-15T01:51:57.034Z,59.70
2022-09-15T01:52:57.325Z,59.70
2022-09-15T01:53:57.569Z,59.70
2022-09-15T01:54:57.813Z,59.70
2022-09-15T01:55:58.129Z,59.70
2022-09-15T01:56:58.346Z,59.70
2022-09-15T01:57:58.584Z,59.70
2022-09-15T01:58:58.818Z,59.70
2022-09-15T01:59:59.065Z,59.70
2022-09-15T02:00:59.342Z,59.70
2022-09-15T02:01:59.653Z,59.70
2022-09-15T02:02:59.860Z,59.70
2022-09-15T02:04:00.100Z,59.70
2022-09-15T02:05:00.339Z,59.70
2022-09-15T02:06:00.569Z,59.70
2022-09-15T02:07:00.852Z,59.70
2022-09-15T02:08:01.094Z,59.70
2022-09-15T02:09:01.329Z,59.70
2022-09-15T02:10:01.576Z,59.61
2022-09-15T02:11:01.811Z,59.70
2022-09-15T02:12:02.118Z,59.70
2022-09-15T02:13:02.400Z,59.70
2022-09-15T02:14:02.641Z,59.70
2022-09-15T02:15:02.890Z,59.70
2022-09-15T02:16:03.176Z,59.70
2022-09-15T02:17:03.406Z,59.61
2022-09-15T02:18:03.634Z,59.61
2022-09-15T02:19:03.877Z,59.61
2022-09-15T02:20:04.113Z,59.70
2022-09-15T02:21:04.355Z,59.70
2022-09-15T02:22:04.594Z,59.70
2022-09-15T02:23:04.835Z,59.61
2022-09-15T02:24:05.066Z,59.61
2022-09-15T02:25:05.315Z,59.61
2022-09-15T02:26:05.555Z,59.61
2022-09-15T02:27:05.801Z,59.70
2022-09-15T02:28:06.035Z,59.61
2022-09-15T02:29:06.276Z,59.61
2022-09-15T02:30:06.516Z,59.70
2022-09-15T02:31:06.797Z,59.61
2022-09-15T02:32:07.641Z,59.61
2022-09-15T02:33:07.249Z,59.61
2022-09-15T02:34:07.490Z,59.61
2022-09-15T02:35:07.735Z,59.61
2022-09-15T02:36:07.968Z,59.61
2022-09-15T02:37:08.209Z,59.61
2022-09-15T02:38:08.449Z,59.61
2022-09-15T02:39:08.689Z,59.61
2022-09-15T02:40:09.022Z,59.61
2022-09-15T02:41:09.260Z,59.61
2022-09-15T02:42:09.499Z,59.61
2022-09-15T02:43:09.731Z,59.61
2022-09-15T02:44:09.971Z,59.61
2022-09-15T02:45:10.221Z,59.61
2022-09-15T02:46:10.530Z,59.61
2022-09-15T02:47:10.733Z,59.61
2022-09-15T02:48:10.979Z,59.51
2022-09-15T02:49:11.212Z,59.61
2022-09-15T02:50:11.453Z,59.51
2022-09-15T02:51:11.694Z,59.51
2022-09-15T02:52:11.933Z,59.61
2022-09-15T02:53:12.173Z,59.61
2022-09-15T02:54:12.414Z,59.51
2022-09-15T02:55:12.654Z,59.51
2022-09-15T02:56:12.895Z,59.61
2022-09-15T02:57:13.135Z,59.61
2022-09-15T02:58:13.376Z,59.61
2022-09-15T02:59:13.613Z,59.61
2022-09-15T03:00:13.896Z,59.61
2022-09-15T03:01:14.229Z,59.61
2022-09-15T03:02:14.502Z,59.61
2022-09-15T03:03:14.737Z,59.61
2022-09-15T03:04:14.978Z,59.61
2022-09-15T03:05:15.265Z,59.61
2022-09-15T03:06:15.507Z,59.61
2022-09-15T03:07:15.738Z,59.61
2022-09-15T03:08:15.985Z,59.61
2022-09-15T03:09:16.227Z,59.61
2022-09-15T03:10:16.472Z,59.61
2022-09-15T03:11:16.770Z,59.61
2022-09-15T03:12:17.010Z,59.61
2022-09-15T03:13:17.241Z,59.51
2022-09-15T03:14:17.490Z,59.51
2022-09-15T03:15:17.721Z,59.51
2022-09-15T03:16:18.050Z,59.51
2022-09-15T03:17:18.269Z,59.51
2022-09-15T03:18:18.502Z,59.51
2022-09-15T03:19:18.741Z,59.51
2022-09-15T03:20:18.990Z,59.51
2022-09-15T03:21:19.222Z,59.51
2022-09-15T03:22:19.462Z,59.51
2022-09-15T03:23:19.705Z,59.51
2022-09-15T03:24:19.943Z,59.51
2022-09-15T03:25:20.276Z,59.51
2022-09-15T03:26:20.534Z,59.51
2022-09-15T03:27:20.766Z,59.51
2022-09-15T03:28:21.005Z,59.51
2022-09-15T03:29:21.246Z,59.51
2022-09-15T03:30:21.486Z,59.51
2022-09-15T03:31:21.848Z,59.51
2022-09-15T03:32:22.005Z,59.51
2022-09-15T03:33:22.244Z,59.51
2022-09-15T03:34:22.478Z,59.51
2022-09-15T03:35:22.717Z,59.51
2022-09-15T03:36:22.967Z,59.51
2022-09-15T03:37:23.207Z,59.61
2022-09-15T03:38:23.438Z,59.61
2022-09-15T03:39:23.687Z,59.51
2022-09-15T03:40:23.956Z,59.51
2022-09-15T03:41:24.203Z,59.51
2022-09-15T03:42:24.438Z,59.51
2022-09-15T03:43:24.746Z,59.51
2022-09-15T03:44:24.981Z,59.51
2022-09-15T03:45:25.325Z,59.51
2022-09-15T03:46:25.520Z,59.51
2022-09-15T03:47:25.760Z,59.51
2022-09-15T03:48:26.001Z,59.51
2022-09-15T03:49:26.244Z,59.51
2022-09-15T03:50:26.481Z,59.51
2022-09-15T03:51:26.721Z,59.51
2022-09-15T03:52:26.960Z,59.51
2022-09-15T03:53:27.192Z,59.51
2022-09-15T03:54:27.493Z,59.51
2022-09-15T03:55:27.736Z,59.41
2022-09-15T03:56:27.985Z,59.51
2022-09-15T03:57:28.205Z,59.51
2022-09-15T03:58:30.745Z,59.51
2022-09-15T03:59:28.694Z,59.51
2022-09-15T04:00:28.970Z,59.51
2022-09-15T04:01:29.215Z,59.51
2022-09-15T04:02:29.471Z,59.51
2022-09-15T04:03:29.687Z,59.51
2022-09-15T04:04:29.947Z,59.51
2022-09-15T04:05:30.186Z,59.51
2022-09-15T04:06:30.430Z,59.51
2022-09-15T04:07:30.667Z,59.51
2022-09-15T04:08:30.910Z,59.51
2022-09-15T04:09:31.147Z,59.51
2022-09-15T04:10:31.396Z,59.51
2022-09-15T04:11:31.629Z,59.51
2022-09-15T04:12:31.876Z,59.51
2022-09-15T04:13:32.109Z,59.51
2022-09-15T04:14:32.350Z,59.51
2022-09-15T04:15:32.590Z,59.51
2022-09-15T04:16:32.887Z,59.51
2022-09-15T04:17:33.110Z,59.51
2022-09-15T04:18:33.348Z,59.51
2022-09-15T04:19:33.581Z,59.51
2022-09-15T04:20:33.829Z,59.41
2022-09-15T04:21:34.061Z,59.41
2022-09-15T04:22:34.302Z,59.51
2022-09-15T04:23:34.553Z,59.51
2022-09-15T04:24:34.791Z,59.41
2022-09-15T04:25:35.025Z,59.41
2022-09-15T04:26:35.263Z,59.41
2022-09-15T04:27:35.511Z,59.41
2022-09-15T04:28:35.744Z,59.51
2022-09-15T04:29:35.984Z,59.51
2022-09-15T04:30:36.234Z,59.41
2022-09-15T04:31:36.485Z,59.41
2022-09-15T04:32:36.776Z,59.41
2022-09-15T04:33:36.995Z,59.41
2022-09-15T04:34:41.260Z,59.41
2022-09-15T04:35:37.516Z,59.41
2022-09-15T04:36:37.756Z,59.41
2022-09-15T04:37:37.986Z,59.41
2022-09-15T04:38:38.238Z,59.41
2022-09-15T04:39:38.487Z,59.41
2022-09-15T04:40:38.727Z,59.41
2022-09-15T04:41:38.969Z,59.41
2022-09-15T04:42:39.208Z,59.41
2022-09-15T04:43:39.448Z,59.41
2022-09-15T04:44:39.688Z,59.41
2022-09-15T04:45:39.936Z,59.41
2022-09-15T04:46:40.204Z,59.41
2022-09-15T04:47:40.459Z,59.41
2022-09-15T04:48:40.701Z,59.41
2022-09-15T04:49:40.942Z,59.41
2022-09-15T04:50:41.189Z,59.41
2022-09-15T04:51:41.423Z,59.41
2022-09-15T04:52:41.661Z,59.31
2022-09-15T04:53:41.941Z,59.31
2022-09-15T04:54:42.204Z,59.41
2022-09-15T04:55:42.445Z,59.41
2022-09-15T04:56:42.680Z,59.41
2022-09-15T04:57:42.935Z,59.41
2022-09-15T04:58:43.184Z,59.41
2022-09-15T04:59:43.413Z,59.31
2022-09-15T05:00:43.764Z,59.31
2022-09-15T05:01:43.948Z,59.31
2022-09-15T05:02:44.184Z,59.31
2022-09-15T05:03:44.417Z,59.31
2022-09-15T05:04:44.656Z,59.31
2022-09-15T05:05:44.895Z,59.41
2022-09-15T05:06:45.134Z,59.31
2022-09-15T05:07:45.375Z,59.31
2022-09-15T05:08:45.616Z,59.41
2022-09-15T05:09:45.847Z,59.41
2022-09-15T05:10:46.095Z,59.41
2022-09-15T05:11:46.327Z,59.51
2022-09-15T05:12:46.570Z,59.51
2022-09-15T05:13:46.861Z,59.51
2022-09-15T05:14:47.098Z,59.51
2022-09-15T05:15:47.508Z,59.51
2022-09-15T05:16:47.579Z,59.51
2022-09-15T05:17:47.826Z,59.51
2022-09-15T05:18:48.071Z,59.51
2022-09-15T05:19:48.312Z,59.51
2022-09-15T05:20:48.571Z,59.51
2022-09-15T05:21:48.808Z,59.51
2022-09-15T05:22:49.041Z,59.61
2022-09-15T05:23:49.311Z,59.61
2022-09-15T05:24:49.555Z,59.61
2022-09-15T05:25:49.794Z,59.61
2022-09-15T05:26:50.034Z,59.61
2022-09-15T05:27:50.262Z,59.61
2022-09-15T05:28:50.512Z,59.61
2022-09-15T05:30:00.337Z,59.61
2022-09-15T05:30:51.981Z,59.70
2022-09-15T05:31:51.366Z,59.70
2022-09-15T05:32:51.584Z,59.70
2022-09-15T05:33:51.824Z,59.70
2022-09-15T05:34:52.064Z,59.70
2022-09-15T05:35:52.305Z,59.70
2022-09-15T05:36:52.546Z,59.81
2022-09-15T05:37:52.785Z,59.81
2022-09-15T05:38:53.064Z,59.81
2022-09-15T05:39:53.280Z,59.81
2022-09-15T05:40:53.507Z,59.91
2022-09-15T05:41:53.751Z,59.91
2022-09-15T05:42:54.004Z,59.91
2022-09-15T05:43:54.237Z,59.91
2022-09-15T05:44:54.478Z,59.91
2022-09-15T05:45:54.719Z,59.91
2022-09-15T05:46:55.028Z,60.00
2022-09-15T05:47:55.257Z,60.00
2022-09-15T05:48:55.501Z,60.00
2022-09-15T05:49:55.730Z,60.00
2022-09-15T05:50:55.981Z,60.00
2022-09-15T05:51:56.230Z,60.00
2022-09-15T05:52:56.493Z,60.31
2022-09-15T05:53:56.761Z,60.41
2022-09-15T05:54:59.183Z,60.61
2022-09-15T05:55:57.252Z,60.93
2022-09-15T05:56:57.501Z,61.04
2022-09-15T05:57:57.891Z,61.13
2022-09-15T05:58:58.042Z,61.24
2022-09-15T05:59:58.292Z,61.36
2022-09-15T06:00:58.594Z,61.57
2022-09-15T06:01:58.869Z,61.66
2022-09-15T06:02:59.217Z,61.87
2022-09-15T06:03:59.341Z,61.99
2022-09-15T06:04:59.594Z,62.19
2022-09-15T06:05:59.854Z,62.29
2022-09-15T06:07:00.115Z,62.49
2022-09-15T06:08:00.368Z,62.59
2022-09-15T06:09:00.992Z,62.79
2022-09-15T06:10:00.955Z,62.99
2022-09-15T06:11:01.213Z,63.12
2022-09-15T06:12:01.466Z,63.22
2022-09-15T06:13:01.717Z,63.22
2022-09-15T06:14:02.014Z,63.22
2022-09-15T06:15:02.268Z,63.32
2022-09-15T06:16:02.585Z,63.42
2022-09-15T06:17:02.827Z,63.53
2022-09-15T06:18:03.079Z,63.53
2022-09-15T06:19:03.329Z,63.62
2022-09-15T06:20:03.600Z,63.62
2022-09-15T06:21:03.872Z,63.72
2022-09-15T06:22:04.142Z,64.03
2022-09-15T06:23:04.380Z,64.03
2022-09-15T06:24:04.669Z,64.12
2022-09-15T06:25:04.919Z,64.12
2022-09-15T06:26:05.171Z,64.22
2022-09-15T06:27:05.430Z,64.03
2022-09-15T06:28:05.692Z,64.03
2022-09-15T06:29:05.968Z,64.03
2022-09-15T06:30:06.211Z,64.03
2022-09-15T06:31:06.462Z,64.12
2022-09-15T06:32:06.812Z,64.22
2022-09-15T06:33:07.074Z,64.32
2022-09-15T06:34:07.322Z,64.52
2022-09-15T06:35:07.574Z,64.52
2022-09-15T06:36:07.834Z,64.55
2022-09-15T06:37:08.086Z,64.65
2022-09-15T06:38:08.343Z,64.65
2022-09-15T06:39:08.603Z,64.75
2022-09-15T06:40:08.926Z,64.95
2022-09-15T06:41:09.105Z,64.75
2022-09-15T06:42:10.339Z,64.65
2022-09-15T06:43:09.626Z,64.83
2022-09-15T06:44:09.884Z,65.02
2022-09-15T06:45:10.146Z,64.92
2022-09-15T06:46:10.537Z,65.33
2022-09-15T06:47:10.652Z,65.33
2022-09-15T06:48:23.990Z,65.45
2022-09-15T06:49:12.136Z,65.55
2022-09-15T06:50:11.448Z,65.66
2022-09-15T06:51:11.739Z,65.95
2022-09-15T06:52:12.016Z,66.05
2022-09-15T06:53:12.277Z,65.95
2022-09-15T06:54:12.535Z,66.16
2022-09-15T06:55:12.769Z,65.95
2022-09-15T06:56:13.020Z,66.16
2022-09-15T06:57:13.283Z,66.36
2022-09-15T06:58:13.551Z,66.66
2022-09-15T06:59:13.801Z,66.66
2022-09-15T07:00:15.033Z,66.55
2022-09-15T07:01:14.402Z,66.75
2022-09-15T07:02:14.806Z,66.75
2022-09-15T07:03:15.124Z,66.75
2022-09-15T07:04:15.275Z,66.66
2022-09-15T07:05:15.531Z,66.55
2022-09-15T07:06:15.793Z,66.75
2022-09-15T07:07:16.056Z,66.75
2022-09-15T07:08:16.313Z,67.25
2022-09-15T07:09:16.566Z,67.66
2022-09-15T07:10:16.815Z,67.96
2022-09-15T07:11:17.074Z,68.16
2022-09-15T07:12:17.335Z,68.36
2022-09-15T07:13:17.589Z,69.16
2022-09-15T07:14:17.857Z,69.36
2022-09-15T07:15:18.107Z,70.16
2022-09-15T07:16:18.421Z,69.96
2022-09-15T07:17:18.667Z,69.66
2022-09-15T07:18:18.925Z,69.66
2022-09-15T07:19:19.177Z,70.23
2022-09-15T07:20:19.437Z,70.23
2022-09-15T07:21:19.687Z,69.73
2022-09-15T07:22:19.938Z,69.93
2022-09-15T07:23:20.221Z,69.62
2022-09-15T07:24:20.456Z,69.82
2022-09-15T07:25:20.709Z,69.53
2022-09-15T07:26:20.970Z,69.12
2022-09-15T07:27:21.230Z,68.93
2022-09-15T07:28:21.491Z,69.32
2022-09-15T07:29:21.761Z,69.23
2022-09-15T07:30:22.032Z,69.12
2022-09-15T07:31:22.354Z,69.12
2022-09-15T07:32:22.592Z,68.93
2022-09-15T07:33:22.851Z,68.82
2022-09-15T07:34:23.103Z,69.12
2022-09-15T07:35:23.353Z,68.93
2022-09-15T07:36:23.623Z,69.02
2022-09-15T07:37:23.873Z,68.82
2022-09-15T07:38:24.144Z,69.12
2022-09-15T07:39:24.394Z,68.93
2022-09-15T07:40:24.744Z,69.23
2022-09-15T07:41:24.895Z,69.12
2022-09-15T07:42:25.173Z,68.93
2022-09-15T07:43:25.425Z,68.93
2022-09-15T07:44:25.687Z,69.23
2022-09-15T07:45:26.032Z,69.12
2022-09-15T07:46:26.258Z,69.23
2022-09-15T07:47:26.517Z,69.32
2022-09-15T07:48:26.806Z,69.32
2022-09-15T07:49:27.065Z,68.93
2022-09-15T07:50:27.328Z,69.02
2022-09-15T07:51:27.578Z,68.93
2022-09-15T07:52:27.838Z,68.62
2022-09-15T07:53:28.090Z,68.32
2022-09-15T07:54:28.349Z,68.23
2022-09-15T07:55:28.603Z,67.93
2022-09-15T07:56:28.871Z,67.93
2022-09-15T07:57:29.150Z,67.82
2022-09-15T07:58:29.410Z,67.93
2022-09-15T07:59:29.660Z,67.32
2022-09-15T08:00:29.946Z,67.63
2022-09-15T08:01:30.240Z,67.32
2022-09-15T08:02:30.471Z,67.72
2022-09-15T08:03:30.732Z,67.22
2022-09-15T08:04:30.993Z,67.52
2022-09-15T08:05:33.768Z,67.93
2022-09-15T08:06:32.672Z,67.93
2022-09-15T08:07:31.753Z,67.52
2022-09-15T08:08:32.044Z,67.52
2022-09-15T08:09:32.295Z,67.52
2022-09-15T08:10:32.561Z,67.52
2022-09-15T08:11:32.818Z,67.52
2022-09-15T08:12:33.084Z,67.43
2022-09-15T08:13:33.342Z,67.32
2022-09-15T08:14:33.595Z,67.32
2022-09-15T08:15:33.881Z,67.13
2022-09-15T08:16:34.303Z,66.82
2022-09-15T08:17:34.440Z,66.93
2022-09-15T08:18:34.704Z,66.82
2022-09-15T08:19:34.946Z,66.69
2022-09-15T08:20:35.206Z,66.49
2022-09-15T08:21:35.457Z,66.52
2022-09-15T08:22:35.748Z,66.82
2022-09-15T08:23:36.007Z,66.93
2022-09-15T08:24:36.269Z,66.69
2022-09-15T08:25:36.518Z,66.39
2022-09-15T08:26:36.869Z,66.39
2022-09-15T08:27:37.079Z,66.42
2022-09-15T08:28:37.339Z,66.32
2022-09-15T08:29:37.600Z,66.13
2022-09-15T08:30:37.859Z,66.32
2022-09-15T08:31:38.186Z,66.52
2022-09-15T08:32:38.463Z,66.82
2022-09-15T08:33:43.162Z,66.93
2022-09-15T08:34:39.951Z,67.02
2022-09-15T08:35:39.271Z,67.02
2022-09-15T08:36:39.533Z,67.09
2022-09-15T08:37:39.783Z,66.79
2022-09-15T08:38:40.040Z,66.89
2022-09-15T08:39:40.333Z,66.69
2022-09-15T08:40:40.594Z,66.89
2022-09-15T08:41:40.853Z,67.09
2022-09-15T08:42:44.810Z,66.99
2022-09-15T08:43:41.468Z,66.79
2022-09-15T08:44:41.704Z,66.89
2022-09-15T08:45:41.954Z,66.79
2022-09-15T08:46:42.296Z,66.59
2022-09-15T08:47:42.536Z,66.19
2022-09-15T08:48:42.799Z,66.29
2022-09-15T08:49:51.657Z,66.99
2022-09-15T08:50:44.296Z,66.19
2022-09-15T08:51:43.616Z,65.89
2022-09-15T08:52:43.876Z,65.99
2022-09-15T08:53:44.162Z,66.49
2022-09-15T08:54:44.398Z,66.79
2022-09-15T08:55:44.666Z,66.79
2022-09-15T08:56:44.925Z,66.66
2022-09-15T08:57:45.179Z,66.66
2022-09-15T08:58:45.446Z,66.56
2022-09-15T08:59:45.699Z,66.76
2022-09-15T09:00:45.957Z,66.86
2022-09-15T09:01:46.303Z,66.76
2022-09-15T09:02:46.508Z,66.76
2022-09-15T09:03:46.769Z,66.96
2022-09-15T09:04:47.023Z,65.99
2022-09-15T09:05:47.281Z,65.79
2022-09-15T09:06:47.552Z,65.99
2022-09-15T09:07:47.802Z,66.56
2022-09-15T09:08:48.062Z,66.56
2022-09-15T09:09:48.312Z,66.46
2022-09-15T09:10:48.573Z,66.46
2022-09-15T09:11:48.839Z,66.36
2022-09-15T09:12:49.093Z,66.06
2022-09-15T09:13:49.353Z,65.96
2022-09-15T09:14:49.604Z,65.76
2022-09-15T09:15:49.953Z,65.86
2022-09-15T09:16:50.154Z,65.86
2022-09-15T09:17:50.405Z,65.96
2022-09-15T09:18:50.674Z,66.06
2022-09-15T09:19:50.933Z,65.76
2022-09-15T09:20:51.194Z,65.76
2022-09-15T09:21:51.459Z,65.66
2022-09-15T09:22:51.717Z,65.86
2022-09-15T09:23:52.045Z,65.86
2022-09-15T09:24:52.258Z,65.86
2022-09-15T09:25:52.515Z,65.86
2022-09-15T09:26:52.778Z,65.76
2022-09-15T09:27:53.057Z,65.66
2022-09-15T09:28:53.359Z,65.76
2022-09-15T09:29:53.606Z,65.76
2022-09-15T09:30:53.932Z,65.76
2022-09-15T09:31:54.178Z,65.76
2022-09-15T09:32:54.439Z,65.86
2022-09-15T09:33:54.787Z,65.76
2022-09-15T09:34:55.029Z,65.86
2022-09-15T09:35:55.287Z,65.86
2022-09-15T09:36:55.552Z,66.06
2022-09-15T09:37:55.801Z,66.16
2022-09-15T09:38:56.064Z,66.06
2022-09-15T09:39:56.344Z,66.06
2022-09-15T09:41:01.286Z,66.06
2022-09-15T09:41:57.843Z,66.06
2022-09-15T09:42:57.174Z,65.86
2022-09-15T09:43:57.439Z,65.56
2022-09-15T09:44:57.683Z,65.46
2022-09-15T09:45:57.983Z,65.56
2022-09-15T09:46:58.234Z,65.56
2022-09-15T09:48:01.626Z,65.56
2022-09-15T09:48:58.768Z,65.66
2022-09-15T09:49:59.024Z,65.46
2022-09-15T09:50:59.345Z,65.66
2022-09-15T09:51:59.605Z,65.56
2022-09-15T09:52:59.865Z,65.66
2022-09-15T09:54:00.116Z,65.66
2022-09-15T09:55:00.376Z,65.76
2022-09-15T09:56:00.638Z,65.86
2022-09-15T09:57:00.900Z,65.86
2022-09-15T09:58:01.157Z,65.86
2022-09-15T09:59:02.438Z,65.76
2022-09-15T10:00:01.747Z,65.86
2022-09-15T10:01:02.061Z,65.86
2022-09-15T10:02:02.310Z,65.66
2022-09-15T10:03:02.578Z,65.46
2022-09-15T10:04:02.830Z,65.36
2022-09-15T10:05:04.009Z,65.36
2022-09-15T10:06:03.369Z,65.46
2022-09-15T10:07:03.640Z,65.36
2022-09-15T10:08:03.903Z,65.46
2022-09-15T10:09:04.177Z,65.36
2022-09-15T10:10:04.431Z,65.66
2022-09-15T10:11:04.702Z,65.96
2022-09-15T10:12:04.961Z,65.86
2022-09-15T10:13:05.212Z,65.99
2022-09-15T10:14:05.473Z,65.96
2022-09-15T10:15:05.733Z,65.76
2022-09-15T10:16:05.993Z,65.66
2022-09-15T10:17:06.341Z,65.86
2022-09-15T10:18:06.473Z,65.76
2022-09-15T10:19:06.743Z,65.46
2022-09-15T10:20:07.004Z,65.26
2022-09-15T10:21:07.254Z,65.26
2022-09-15T10:22:07.525Z,65.16
2022-09-15T10:23:07.785Z,65.16
2022-09-15T10:24:08.036Z,65.26
2022-09-15T10:25:08.297Z,65.46
2022-09-15T10:26:08.556Z,65.36
2022-09-15T10:27:08.825Z,65.16
2022-09-15T10:28:09.076Z,65.06
2022-09-15T10:29:09.340Z,65.06
2022-09-15T10:30:09.617Z,65.26
2022-09-15T10:31:09.885Z,65.26
2022-09-15T10:32:10.186Z,65.16
2022-09-15T10:33:10.448Z,65.06
2022-09-15T10:34:10.759Z,64.83
2022-09-15T10:35:11.018Z,64.83
2022-09-15T10:36:11.271Z,64.73
2022-09-15T10:37:11.540Z,64.63
2022-09-15T10:38:11.810Z,64.73
2022-09-15T10:39:12.090Z,64.63
2022-09-15T10:40:12.471Z,64.63
2022-09-15T10:41:12.680Z,64.73
2022-09-15T10:42:12.941Z,64.83
2022-09-15T10:43:13.212Z,64.73
2022-09-15T10:44:13.473Z,64.53
2022-09-15T10:45:13.722Z,64.33
2022-09-15T10:46:14.077Z,64.33
2022-09-15T10:47:14.271Z,64.13
2022-09-15T10:48:14.524Z,64.03
2022-09-15T10:49:14.784Z,63.93
2022-09-15T10:50:15.045Z,63.83
2022-09-15T10:51:15.313Z,63.73
2022-09-15T10:52:15.573Z,63.73
2022-09-15T10:53:15.833Z,63.83
2022-09-15T10:54:16.094Z,63.93
2022-09-15T10:55:16.356Z,63.96
2022-09-15T10:56:16.606Z,63.96
2022-09-15T10:57:16.991Z,64.06
2022-09-15T10:58:17.106Z,63.96
2022-09-15T10:59:17.366Z,64.06
2022-09-15T11:00:17.636Z,64.06
2022-09-15T11:01:17.968Z,63.96
2022-09-15T11:02:18.239Z,64.06
2022-09-15T11:03:18.528Z,64.06
2022-09-15T11:04:18.786Z,64.06
2022-09-15T11:05:22.037Z,64.06
2022-09-15T11:06:19.380Z,64.06
2022-09-15T11:07:19.640Z,64.06
2022-09-15T11:08:19.918Z,63.96
2022-09-15T11:09:20.169Z,63.96
2022-09-15T11:10:20.429Z,63.96
2022-09-15T11:11:20.693Z,63.86
2022-09-15T11:12:21.047Z,63.86
2022-09-15T11:13:21.250Z,63.76
2022-09-15T11:14:21.510Z,63.63
2022-09-15T11:15:21.772Z,63.53
2022-09-15T11:16:22.124Z,63.43
2022-09-15T11:17:22.333Z,63.33
2022-09-15T11:18:22.599Z,63.13
2022-09-15T11:19:22.872Z,62.83
2022-09-15T11:20:23.133Z,62.70
2022-09-15T11:21:23.392Z,62.60
2022-09-15T11:22:23.653Z,62.50
2022-09-15T11:23:23.916Z,62.40
2022-09-15T11:24:24.174Z,62.20
2022-09-15T11:25:24.424Z,62.10
2022-09-15T11:26:24.695Z,61.98
2022-09-15T11:27:24.986Z,61.87
2022-09-15T11:28:25.254Z,61.68
2022-09-15T11:29:25.543Z,61.68
2022-09-15T11:30:25.804Z,61.57
2022-09-15T11:31:26.103Z,61.47
2022-09-15T11:32:26.371Z,61.38
2022-09-15T11:33:26.632Z,61.38
2022-09-15T11:34:26.887Z,61.27
2022-09-15T11:35:27.137Z,61.18
2022-09-15T11:36:27.406Z,61.08
2022-09-15T11:37:27.658Z,61.08
2022-09-15T11:38:27.908Z,61.05
2022-09-15T11:39:28.166Z,60.95
2022-09-15T11:40:28.467Z,60.85
2022-09-15T11:41:28.729Z,60.75
2022-09-15T11:42:28.990Z,60.65
2022-09-15T11:43:29.262Z,60.75
2022-09-15T11:44:29.500Z,60.55
2022-09-15T11:45:29.750Z,60.45
2022-09-15T11:46:30.065Z,60.45
2022-09-15T11:47:30.321Z,60.25
2022-09-15T11:48:30.610Z,60.15
2022-09-15T11:49:30.862Z,60.15
2022-09-15T11:50:31.122Z,60.05
2022-09-15T11:51:31.380Z,60.15
2022-09-15T11:52:31.653Z,60.05
2022-09-15T11:53:31.908Z,60.05
2022-09-15T11:54:32.193Z,60.05
2022-09-15T11:55:32.444Z,60.05
2022-09-15T11:56:32.724Z,60.15
2022-09-15T11:57:32.984Z,60.25
2022-09-15T11:58:33.282Z,60.35
2022-09-15T11:59:33.535Z,60.45
2022-09-15T12:00:33.794Z,60.45
2022-09-15T12:01:34.092Z,60.58
2022-09-15T12:02:34.380Z,60.68
2022-09-15T12:03:34.616Z,60.68
2022-09-15T12:04:34.877Z,60.78
2022-09-15T12:05:35.127Z,60.78
2022-09-15T12:06:35.396Z,60.78
2022-09-15T12:07:35.659Z,60.78
2022-09-15T12:08:35.916Z,60.78
2022-09-15T12:09:36.169Z,60.88
2022-09-15T12:10:36.428Z,60.88
2022-09-15T12:11:36.688Z,60.88
2022-09-15T12:12:36.956Z,60.97
2022-09-15T12:13:37.209Z,60.97
2022-09-15T12:14:37.461Z,60.97
2022-09-15T12:15:37.813Z,61.08
2022-09-15T12:16:38.050Z,60.97
2022-09-15T12:17:38.310Z,60.97
2022-09-15T12:18:41.038Z,60.97
2022-09-15T12:19:39.810Z,60.97
2022-09-15T12:20:39.122Z,60.97
2022-09-15T12:21:39.382Z,61.08
2022-09-15T12:22:39.642Z,61.08
2022-09-15T12:23:39.902Z,61.08
2022-09-15T12:24:40.162Z,60.97
2022-09-15T12:25:40.413Z,61.08
2022-09-15T12:26:40.716Z,60.97
2022-09-15T12:27:40.974Z,60.97
2022-09-15T12:28:41.236Z,61.08
2022-09-15T12:29:42.485Z,61.08
2022-09-15T12:30:41.824Z,61.08
2022-09-15T12:31:42.084Z,60.97
2022-09-15T12:32:42.315Z,60.97
2022-09-15T12:33:42.575Z,61.08
2022-09-15T12:34:42.837Z,61.08
2022-09-15T12:35:43.094Z,60.97
2022-09-15T12:36:43.358Z,60.88
2022-09-15T12:37:43.606Z,60.78
2022-09-15T12:38:43.946Z,60.68
2022-09-15T12:39:44.158Z,60.58
2022-09-15T12:40:44.417Z,60.48
2022-09-15T12:41:44.679Z,60.48
2022-09-15T12:42:44.950Z,60.38
2022-09-15T12:43:45.230Z,60.28
2022-09-15T12:44:45.498Z,60.17
2022-09-15T12:45:45.759Z,60.08
2022-09-15T12:46:46.087Z,59.98
2022-09-15T12:47:46.329Z,59.88
2022-09-15T12:48:47.515Z,59.78
2022-09-15T12:49:46.820Z,59.78
2022-09-15T12:50:47.082Z,59.68
2022-09-15T12:51:47.333Z,59.58
2022-09-15T12:52:47.591Z,59.58
2022-09-15T12:53:47.852Z,59.48
2022-09-15T12:54:48.110Z,59.48
2022-09-15T12:55:48.366Z,59.38